createdAt,value
2022-10-18T00:02:15.779Z,26.50
2022-10-18T00:04:42.486Z,31.02
2022-10-18T00:07:09.141Z,26.77
2022-10-18T00:09:35.855Z,23.60
2022-10-18T00:12:02.697Z,23.40
2022-10-18T00:16:55.962Z,22.50
2022-10-18T00:19:25.924Z,26.27
2022-10-18T00:21:55.271Z,23.60
2022-10-18T00:24:21.913Z,21.75
2022-10-18T00:26:48.533Z,20.42
2022-10-18T00:29:16.457Z,25.45
2022-10-18T00:31:44.282Z,23.55
2022-10-18T00:34:15.816Z,18.20
2022-10-18T00:36:43.784Z,26.98
2022-10-18T00:39:17.734Z,55.80
2022-10-18T00:41:45.147Z,34.97
2022-10-18T00:44:11.723Z,28.30
2022-10-18T00:46:40.947Z,25.80
2022-10-18T00:49:13.303Z,25.80
2022-10-18T00:52:05.428Z,24.60
2022-10-18T00:54:35.583Z,23.15
2022-10-18T00:57:03.111Z,26.90
2022-10-18T00:59:30.353Z,21.50
2022-10-18T01:01:57.121Z,25.55
2022-10-18T01:04:24.129Z,25.17
2022-10-18T01:07:09.574Z,21.70
2022-10-18T01:09:39.048Z,26.33
2022-10-18T01:12:29.293Z,31.83
2022-10-18T01:15:17.814Z,26.40
2022-10-18T01:18:22.227Z,22.50
2022-10-18T01:21:15.208Z,22.73
2022-10-18T01:24:16.194Z,21.90
2022-10-18T01:27:09.185Z,22.42
2022-10-18T01:29:53.289Z,26.85
2022-10-18T01:32:24.080Z,21.95
2022-10-18T01:34:57.339Z,28.02
2022-10-18T01:39:55.851Z,33.92
2022-10-18T01:42:22.696Z,46.03
2022-10-18T01:44:52.106Z,46.05
2022-10-18T01:47:19.527Z,47.80
2022-10-18T01:49:46.328Z,38.80
2022-10-18T01:52:14.684Z,41.25
2022-10-18T01:54:46.106Z,32.50
2022-10-18T01:57:27.700Z,28.77
2022-10-18T02:00:16.517Z,24.83
2022-10-18T02:02:56.587Z,20.73
2022-10-18T02:05:33.196Z,24.70
2022-10-18T02:08:23.379Z,24.42
2022-10-18T02:11:03.681Z,21.73
2022-10-18T02:13:58.496Z,25.55
2022-10-18T02:16:45.615Z,23.85
2022-10-18T02:19:32.982Z,19.25
2022-10-18T02:22:00.495Z,21.55
2022-10-18T02:24:49.576Z,21.88
2022-10-18T02:27:16.678Z,20.50
2022-10-18T02:29:44.399Z,19.02
2022-10-18T02:32:11.032Z,20.52
2022-10-18T02:34:49.285Z,23.00
2022-10-18T02:37:17.317Z,21.90
2022-10-18T02:39:48.262Z,21.33
2022-10-18T02:42:15.928Z,21.92
2022-10-18T02:44:42.949Z,22.33
2022-10-18T02:47:11.444Z,24.48
2022-10-18T02:49:38.333Z,20.60
2022-10-18T02:54:32.059Z,16.98
2022-10-18T02:56:59.211Z,18.38
2022-10-18T02:59:25.894Z,17.50
2022-10-18T03:01:52.708Z,20.73
2022-10-18T03:04:19.542Z,18.92
2022-10-18T03:06:46.207Z,19.05
2022-10-18T03:09:13.276Z,16.40
2022-10-18T03:11:39.914Z,20.75
2022-10-18T03:14:06.561Z,19.60
2022-10-18T03:16:34.152Z,19.13
2022-10-18T03:19:00.823Z,17.52
2022-10-18T03:21:27.676Z,21.02
2022-10-18T03:23:54.714Z,23.63
2022-10-18T03:26:21.780Z,18.20
2022-10-18T03:28:48.449Z,17.20
2022-10-18T03:31:15.167Z,22.42
2022-10-18T03:33:42.251Z,27.17
2022-10-18T03:36:09.424Z,26.00
2022-10-18T03:38:36.139Z,26.52
2022-10-18T03:41:03.237Z,27.30
2022-10-18T03:43:30.042Z,19.83
2022-10-18T03:45:56.768Z,22.88
2022-10-18T03:48:23.511Z,26.15
2022-10-18T03:50:50.216Z,22.98
2022-10-18T03:53:17.279Z,19.65
2022-10-18T03:55:43.973Z,26.98
2022-10-18T03:58:11.539Z,25.80
2022-10-18T04:00:38.219Z,22.88
2022-10-18T04:03:04.974Z,22.38
2022-10-18T04:05:31.621Z,21.25
2022-10-18T04:07:58.571Z,19.60
2022-10-18T04:12:52.142Z,19.92
2022-10-18T04:15:18.892Z,20.60
2022-10-18T04:17:45.642Z,21.60
2022-10-18T04:20:12.551Z,21.00
2022-10-18T04:25:06.134Z,23.77
2022-10-18T04:27:33.102Z,22.02
2022-10-18T04:29:59.908Z,22.42
2022-10-18T04:32:28.635Z,25.30
2022-10-18T04:34:55.682Z,18.27
2022-10-18T04:37:22.763Z,21.30
2022-10-18T04:39:53.436Z,119.75
2022-10-18T04:42:21.157Z,121.90
2022-10-18T04:44:48.370Z,51.13
2022-10-18T04:47:15.224Z,25.60
2022-10-18T04:49:42.562Z,32.92
2022-10-18T04:52:09.842Z,29.45
2022-10-18T04:54:36.705Z,38.35
2022-10-18T04:57:03.727Z,35.45
2022-10-18T04:59:30.823Z,44.78
2022-10-18T05:01:57.694Z,89.63
2022-10-18T05:06:51.006Z,69.97
2022-10-18T05:09:17.837Z,55.92
2022-10-18T05:11:44.917Z,56.20
2022-10-18T05:14:11.626Z,88.10
2022-10-18T05:16:38.305Z,80.03
2022-10-18T05:19:05.679Z,63.33
2022-10-18T05:21:32.771Z,60.60
2022-10-18T05:23:59.518Z,43.22
2022-10-18T05:26:26.404Z,63.30
2022-10-18T05:31:21.214Z,54.75
2022-10-18T05:33:48.289Z,86.20
2022-10-18T05:36:15.312Z,43.10
2022-10-18T05:38:43.122Z,68.50
2022-10-18T05:41:10.171Z,53.90
2022-10-18T05:43:36.963Z,46.67
2022-10-18T05:46:04.786Z,31.48
2022-10-18T05:48:31.558Z,38.20
2022-10-18T05:50:59.484Z,46.72
2022-10-18T05:53:42.175Z,47.97
2022-10-18T05:56:11.600Z,25.70
2022-10-18T05:58:38.719Z,38.85
2022-10-18T06:01:06.328Z,39.05
2022-10-18T06:03:33.573Z,37.25
2022-10-18T06:06:06.103Z,53.88
2022-10-18T06:08:33.476Z,31.58
2022-10-18T06:11:00.670Z,27.02
2022-10-18T06:13:29.084Z,36.10
2022-10-18T06:15:58.319Z,34.53
2022-10-18T06:18:25.638Z,37.13
2022-10-18T06:20:59.445Z,72.47
2022-10-18T06:23:29.208Z,42.28
2022-10-18T06:26:04.620Z,35.28
2022-10-18T06:28:31.472Z,64.55
2022-10-18T06:33:25.388Z,97.35
2022-10-18T06:36:03.464Z,53.03
2022-10-18T06:38:30.717Z,40.80
2022-10-18T06:40:58.203Z,33.60
2022-10-18T06:43:25.033Z,68.65
2022-10-18T06:45:52.159Z,67.82
2022-10-18T06:51:00.250Z,45.15
2022-10-18T06:53:29.274Z,57.65
2022-10-18T06:56:07.317Z,40.78
2022-10-18T06:58:35.271Z,25.98
2022-10-18T07:01:11.167Z,69.50
2022-10-18T07:03:38.072Z,46.42
2022-10-18T07:06:07.181Z,53.20
2022-10-18T07:08:34.472Z,51.42
2022-10-18T07:11:01.659Z,54.63
2022-10-18T07:13:33.061Z,44.10
2022-10-18T07:16:20.454Z,68.85
2022-10-18T07:18:49.600Z,36.70
2022-10-18T07:21:18.640Z,44.30
2022-10-18T07:23:46.317Z,52.00
2022-10-18T07:26:16.713Z,47.58
2022-10-18T07:28:45.179Z,33.50
2022-10-18T07:31:12.784Z,36.85
2022-10-18T07:33:39.700Z,14.93
2022-10-18T07:36:08.690Z,16.98
2022-10-18T07:38:35.829Z,15.68
2022-10-18T07:41:06.158Z,14.25
2022-10-18T07:43:33.607Z,16.35
2022-10-18T07:46:02.311Z,15.23
2022-10-18T07:48:29.650Z,14.25
2022-10-18T07:50:59.662Z,15.52
2022-10-18T07:53:26.652Z,16.00
2022-10-18T07:58:23.576Z,23.48
2022-10-18T08:00:50.206Z,16.15
2022-10-18T08:03:16.889Z,16.90
2022-10-18T08:05:43.552Z,16.58
2022-10-18T08:08:10.323Z,14.93
2022-10-18T08:10:37.051Z,14.80
2022-10-18T08:13:03.704Z,14.60
2022-10-18T08:15:30.325Z,19.88
2022-10-18T08:17:57.387Z,19.17
2022-10-18T08:20:30.785Z,19.15
2022-10-18T08:23:00.485Z,16.60
2022-10-18T08:25:28.306Z,18.90
2022-10-18T08:27:55.163Z,17.70
2022-10-18T08:30:23.299Z,17.92
2022-10-18T08:32:49.932Z,23.42
2022-10-18T08:35:16.631Z,20.55
2022-10-18T08:37:45.181Z,15.98
2022-10-18T08:40:15.245Z,17.45
2022-10-18T08:42:57.983Z,13.18
2022-10-18T08:45:40.945Z,17.25
2022-10-18T08:48:11.994Z,15.05
2022-10-18T08:50:39.568Z,16.90
2022-10-18T08:53:36.187Z,15.00
2022-10-18T08:56:16.000Z,13.00
2022-10-18T08:58:46.481Z,17.20
2022-10-18T09:01:19.141Z,14.30
2022-10-18T09:04:03.405Z,11.77
2022-10-18T09:06:38.509Z,13.55
2022-10-18T09:09:05.638Z,10.40
2022-10-18T09:11:46.822Z,15.30
2022-10-18T09:14:56.008Z,14.93
2022-10-18T09:17:50.109Z,11.38
2022-10-18T09:20:22.105Z,12.50
2022-10-18T09:22:52.525Z,5.93
2022-10-18T09:25:21.109Z,6.68
2022-10-18T09:28:21.738Z,11.35
2022-10-18T09:31:05.697Z,8.35
2022-10-18T09:33:53.627Z,14.00
2022-10-18T09:36:26.735Z,7.05
2022-10-18T09:38:59.914Z,12.88
2022-10-18T09:41:53.988Z,10.68
2022-10-18T09:44:35.379Z,8.25
2022-10-18T09:47:22.739Z,12.60
2022-10-18T09:49:51.662Z,8.30
2022-10-18T09:52:27.237Z,10.25
2022-10-18T09:55:01.115Z,6.63
2022-10-18T09:57:42.681Z,9.63
2022-10-18T10:00:18.503Z,9.52
2022-10-18T10:02:45.171Z,12.18
2022-10-18T10:05:15.357Z,7.65
2022-10-18T10:07:44.943Z,7.65
2022-10-18T10:10:21.707Z,6.50
2022-10-18T10:12:49.140Z,5.95
2022-10-18T10:15:31.204Z,13.90
2022-10-18T10:18:03.466Z,9.40
2022-10-18T10:20:36.999Z,7.43
2022-10-18T10:23:13.797Z,8.02
2022-10-18T10:25:42.138Z,6.32
2022-10-18T10:28:22.534Z,4.80
2022-10-18T10:30:49.939Z,5.47
2022-10-18T10:33:38.063Z,6.15
2022-10-18T10:36:16.027Z,7.05
2022-10-18T10:38:43.074Z,6.25
2022-10-18T10:41:21.580Z,7.05
2022-10-18T10:43:49.787Z,9.57
2022-10-18T10:46:20.824Z,7.95
2022-10-18T10:49:04.455Z,7.95
2022-10-18T10:51:41.101Z,4.18
2022-10-18T10:54:24.361Z,10.88
2022-10-18T10:57:12.629Z,8.00
2022-10-18T10:59:44.765Z,9.43
2022-10-18T11:02:15.189Z,5.35
2022-10-18T11:04:42.416Z,4.78
2022-10-18T11:07:08.986Z,7.22
2022-10-18T11:09:41.431Z,4.85
2022-10-18T11:12:22.972Z,7.63
2022-10-18T11:15:12.745Z,6.85
2022-10-18T11:17:39.332Z,5.07
2022-10-18T11:20:22.975Z,5.22
2022-10-18T11:23:11.812Z,8.52
2022-10-18T11:25:49.027Z,5.70
2022-10-18T11:28:45.998Z,6.55
2022-10-18T11:31:23.851Z,8.25
2022-10-18T11:34:09.930Z,8.15
2022-10-18T11:37:36.019Z,6.88
2022-10-18T11:40:23.509Z,3.67
2022-10-18T11:43:17.484Z,9.55
2022-10-18T11:46:21.075Z,9.02
2022-10-18T11:49:02.369Z,4.22
2022-10-18T11:52:07.692Z,9.13
2022-10-18T11:55:04.085Z,8.52
2022-10-18T11:57:43.739Z,5.50
2022-10-18T12:03:27.592Z,5.35
2022-10-18T12:05:57.066Z,9.02
2022-10-18T12:08:27.087Z,3.95
2022-10-18T12:11:05.058Z,4.90
2022-10-18T12:13:57.597Z,7.28
2022-10-18T12:16:49.259Z,7.55
2022-10-18T12:19:29.048Z,7.63
2022-10-18T12:22:02.441Z,6.00
2022-10-18T12:24:31.625Z,6.00
2022-10-18T12:27:01.237Z,6.82
2022-10-18T12:29:28.322Z,4.90
2022-10-18T12:32:01.693Z,4.70
2022-10-18T12:34:54.191Z,3.75
2022-10-18T12:37:45.859Z,4.05
2022-10-18T12:40:23.211Z,3.13
2022-10-18T12:42:52.175Z,5.05
2022-10-18T12:45:26.101Z,17.48
2022-10-18T12:47:53.924Z,5.88
2022-10-18T12:50:35.083Z,5.35
2022-10-18T12:53:12.309Z,5.57
2022-10-18T12:55:47.634Z,6.22
2022-10-18T12:58:14.219Z,6.00
2022-10-18T13:00:43.952Z,6.68
2022-10-18T13:03:13.275Z,5.60
2022-10-18T13:05:54.553Z,6.13
2022-10-18T13:08:28.171Z,5.10
2022-10-18T13:11:27.348Z,7.55
2022-10-18T13:14:15.881Z,7.18
2022-10-18T13:17:06.104Z,4.95
2022-10-18T13:20:25.125Z,4.63
2022-10-18T13:23:03.840Z,6.20
2022-10-18T13:25:51.260Z,6.88
2022-10-18T13:28:44.845Z,5.15
2022-10-18T13:31:52.863Z,6.28
2022-10-18T13:34:24.977Z,7.13
2022-10-18T13:39:28.477Z,7.15
2022-10-18T13:41:58.139Z,7.72
2022-10-18T13:44:28.436Z,4.70
2022-10-18T13:46:55.103Z,5.43
2022-10-18T13:49:36.437Z,7.40
2022-10-18T13:52:09.054Z,9.52
2022-10-18T13:55:04.284Z,5.20
2022-10-18T13:58:03.578Z,4.15
2022-10-18T14:00:49.209Z,4.85
2022-10-18T14:06:40.735Z,3.33
2022-10-18T14:09:43.793Z,5.55
2022-10-18T14:12:33.744Z,5.80
2022-10-18T14:15:07.805Z,6.80
2022-10-18T14:17:42.872Z,7.18
2022-10-18T14:20:49.339Z,7.80
2022-10-18T14:23:33.743Z,7.05
2022-10-18T14:26:22.764Z,7.25
2022-10-18T14:29:19.044Z,9.50
2022-10-18T14:31:54.274Z,9.55
2022-10-18T14:34:21.686Z,7.90
2022-10-18T14:36:50.165Z,10.23
2022-10-18T14:39:21.918Z,5.63
2022-10-18T14:41:56.394Z,9.18
2022-10-18T14:44:28.864Z,8.05
2022-10-18T14:46:55.478Z,7.65
2022-10-18T14:49:22.191Z,12.15
2022-10-18T14:51:54.678Z,7.03
2022-10-18T14:54:35.999Z,10.02
2022-10-18T14:57:04.660Z,8.75
2022-10-18T14:59:44.806Z,7.43
2022-10-18T15:02:23.585Z,7.43
2022-10-18T15:05:08.652Z,6.63
2022-10-18T15:07:36.280Z,10.15
2022-10-18T15:10:04.836Z,9.20
2022-10-18T15:12:36.835Z,7.50
2022-10-18T15:15:17.939Z,6.72
2022-10-18T15:17:45.862Z,9.35
2022-10-18T15:20:25.991Z,5.88
2022-10-18T15:22:53.152Z,5.28
2022-10-18T15:25:31.592Z,8.60
2022-10-18T15:30:37.166Z,7.35
2022-10-18T15:33:09.592Z,7.50
2022-10-18T15:35:38.442Z,6.93
2022-10-18T15:38:17.076Z,7.72
2022-10-18T15:40:44.162Z,5.80
2022-10-18T15:43:23.017Z,7.57
2022-10-18T15:46:00.062Z,9.38
2022-10-18T15:48:40.784Z,10.93
2022-10-18T15:51:12.459Z,6.40
2022-10-18T15:53:44.980Z,6.00
2022-10-18T15:56:34.286Z,6.45
2022-10-18T15:59:15.710Z,9.27
2022-10-18T16:01:44.251Z,12.77
2022-10-18T16:04:25.016Z,7.25
2022-10-18T16:06:52.554Z,10.07
2022-10-18T16:09:21.009Z,9.02
2022-10-18T16:11:54.284Z,9.40
2022-10-18T16:14:24.396Z,11.55
2022-10-18T16:16:55.207Z,12.30
2022-10-18T16:19:25.210Z,9.40
2022-10-18T16:21:53.567Z,9.15
2022-10-18T16:24:21.371Z,6.13
2022-10-18T16:26:48.524Z,13.50
2022-10-18T16:29:25.804Z,9.75
2022-10-18T16:31:55.182Z,10.57
2022-10-18T16:34:22.730Z,16.02
2022-10-18T16:36:49.465Z,10.40
2022-10-18T16:39:18.110Z,15.25
2022-10-18T16:41:45.431Z,10.57
2022-10-18T16:44:12.888Z,14.52
2022-10-18T16:46:40.967Z,10.80
2022-10-18T16:49:16.997Z,15.38
2022-10-18T16:51:43.700Z,13.52
2022-10-18T16:56:37.167Z,8.50
2022-10-18T16:59:04.014Z,14.20
2022-10-18T17:03:57.396Z,10.05
2022-10-18T17:06:32.378Z,11.82
2022-10-18T17:08:59.673Z,11.88
2022-10-18T17:11:29.839Z,16.13
2022-10-18T17:13:56.935Z,13.07
2022-10-18T17:18:57.965Z,15.23
2022-10-18T17:21:26.364Z,12.70
2022-10-18T17:23:53.513Z,16.63
2022-10-18T17:26:30.449Z,14.85
2022-10-18T17:29:06.533Z,12.60
2022-10-18T17:31:33.593Z,16.17
2022-10-18T17:34:01.773Z,14.57
2022-10-18T17:36:30.512Z,13.93
2022-10-18T17:38:57.869Z,8.98
2022-10-18T17:41:24.640Z,12.70
2022-10-18T17:46:19.453Z,16.98
2022-10-18T17:48:46.664Z,11.02
2022-10-18T17:51:16.537Z,11.25
2022-10-18T17:53:44.067Z,10.45
2022-10-18T17:56:11.147Z,14.30
2022-10-18T17:58:37.894Z,16.38
2022-10-18T18:01:24.849Z,18.33
2022-10-18T18:03:57.154Z,15.52
2022-10-18T18:06:31.214Z,14.30
2022-10-18T18:08:59.393Z,12.38
2022-10-18T18:11:26.340Z,12.13
2022-10-18T18:13:55.558Z,17.02
2022-10-18T18:16:25.431Z,9.82
2022-10-18T18:18:55.541Z,14.15
2022-10-18T18:21:22.971Z,17.13
2022-10-18T18:23:50.152Z,18.02
2022-10-18T18:26:18.480Z,12.15
2022-10-18T18:28:45.363Z,12.35
2022-10-18T18:31:15.491Z,8.95
2022-10-18T18:33:42.903Z,7.95
2022-10-18T18:36:10.214Z,12.27
2022-10-18T18:38:38.732Z,9.38
2022-10-18T18:41:07.575Z,9.63
2022-10-18T18:43:35.107Z,13.57
2022-10-18T18:46:02.200Z,15.50
2022-10-18T18:48:29.048Z,13.32
2022-10-18T18:53:24.893Z,9.43
2022-10-18T18:55:53.802Z,13.90
2022-10-18T18:58:20.871Z,8.10
2022-10-18T19:00:47.648Z,9.25
2022-10-18T19:03:14.334Z,11.38
2022-10-18T19:05:41.014Z,8.20
2022-10-18T19:08:07.750Z,11.00
2022-10-18T19:10:34.863Z,12.88
2022-10-18T19:13:01.948Z,9.82
2022-10-18T19:15:28.665Z,13.05
2022-10-18T19:17:56.296Z,9.90
2022-10-18T19:20:23.032Z,11.52
2022-10-18T19:22:49.713Z,11.02
2022-10-18T19:25:16.455Z,11.20
2022-10-18T19:27:43.580Z,13.85
2022-10-18T19:30:11.517Z,10.35
2022-10-18T19:32:38.424Z,8.40
2022-10-18T19:37:32.625Z,8.07
2022-10-18T19:39:59.699Z,8.32
2022-10-18T19:42:30.329Z,9.23
2022-10-18T19:44:58.419Z,9.23
2022-10-18T19:47:25.487Z,7.97
2022-10-18T19:49:53.670Z,7.47
2022-10-18T19:52:20.808Z,9.13
2022-10-18T19:54:48.921Z,11.35
2022-10-18T19:57:15.894Z,12.98
2022-10-18T20:02:14.636Z,10.10
2022-10-18T20:04:42.011Z,15.60
2022-10-18T20:07:09.009Z,11.88
2022-10-18T20:09:36.337Z,13.13
2022-10-18T20:12:03.096Z,9.35
2022-10-18T20:14:30.247Z,11.35
2022-10-18T20:16:57.296Z,11.98
2022-10-18T20:19:24.444Z,7.18
2022-10-18T20:21:51.653Z,13.57
2022-10-18T20:24:18.271Z,11.38
2022-10-18T20:26:45.104Z,7.53
2022-10-18T20:29:12.845Z,9.68
2022-10-18T20:31:39.646Z,7.97
2022-10-18T20:34:10.384Z,6.88
2022-10-18T20:36:37.627Z,9.13
2022-10-18T20:39:05.176Z,10.05
2022-10-18T20:41:37.931Z,9.05
2022-10-18T20:44:07.108Z,8.32
2022-10-18T20:46:35.765Z,9.07
2022-10-18T20:49:03.047Z,11.55
2022-10-18T20:51:30.263Z,9.38
2022-10-18T20:53:57.143Z,8.43
2022-10-18T20:56:26.558Z,13.27
2022-10-18T20:58:56.842Z,13.63
2022-10-18T21:01:32.224Z,12.68
2022-10-18T21:04:03.126Z,9.45
2022-10-18T21:06:41.595Z,11.75
2022-10-18T21:09:16.689Z,15.73
2022-10-18T21:11:45.911Z,14.07
2022-10-18T21:14:20.427Z,13.98
2022-10-18T21:16:47.989Z,13.98
2022-10-18T21:19:15.152Z,11.23
2022-10-18T21:21:44.341Z,15.50
2022-10-18T21:24:12.101Z,14.38
2022-10-18T21:26:39.154Z,10.05
2022-10-18T21:29:06.709Z,12.40
2022-10-18T21:31:39.148Z,12.68
2022-10-18T21:34:15.707Z,14.43
2022-10-18T21:36:43.925Z,18.10
2022-10-18T21:39:13.563Z,12.02
2022-10-18T21:41:40.445Z,14.73
2022-10-18T21:44:10.690Z,10.48
2022-10-18T21:46:39.271Z,14.30
2022-10-18T21:49:06.976Z,13.93
2022-10-18T21:51:33.784Z,15.02
2022-10-18T21:54:00.572Z,14.88
2022-10-18T21:56:30.046Z,13.43
2022-10-18T21:58:57.475Z,17.63
2022-10-18T22:01:38.122Z,10.93
2022-10-18T22:04:16.159Z,17.15
2022-10-18T22:06:42.788Z,15.30
2022-10-18T22:09:09.506Z,17.45
2022-10-18T22:11:42.854Z,12.82
2022-10-18T22:14:09.560Z,9.65
2022-10-18T22:16:36.618Z,14.90
2022-10-18T22:21:31.285Z,10.80
2022-10-18T22:26:34.070Z,11.25
2022-10-18T22:29:06.935Z,10.10
2022-10-18T22:31:36.752Z,9.77
2022-10-18T22:34:06.710Z,11.20
2022-10-18T22:36:34.816Z,13.82
2022-10-18T22:39:01.927Z,11.73
2022-10-18T22:41:28.720Z,13.32
2022-10-18T22:43:58.392Z,8.50
2022-10-18T22:46:28.312Z,17.67
2022-10-18T22:48:55.091Z,10.52
2022-10-18T22:51:22.219Z,9.60
2022-10-18T22:53:49.386Z,11.55
2022-10-18T22:58:44.826Z,11.02
2022-10-18T23:03:42.596Z,10.05
2022-10-18T23:06:24.736Z,10.40
2022-10-18T23:08:52.042Z,11.23
2022-10-18T23:11:19.305Z,13.50
2022-10-18T23:13:46.393Z,14.25
2022-10-18T23:21:09.453Z,13.00
2022-10-18T23:23:38.529Z,12.07
2022-10-18T23:26:07.583Z,17.60
2022-10-18T23:28:36.881Z,13.48
2022-10-18T23:31:10.342Z,13.85
2022-10-18T23:36:05.247Z,13.48
2022-10-18T23:38:32.487Z,15.77
2022-10-18T23:40:59.575Z,12.27
2022-10-18T23:45:53.499Z,14.73
2022-10-18T23:48:20.183Z,13.80
2022-10-18T23:50:47.204Z,14.40
2022-10-18T23:53:13.873Z,15.10
2022-10-18T23:55:48.469Z,13.80
2022-10-18T23:58:15.521Z,11.48
